Time;durP1;ratioP1;P1;durP2;ratioP2;P2;SDS_P1;SDS_P2;PMS_P1;PMS_P2;Temp;Humidity;BMP_temperature;BMP_pressure;BME280_temperature;BME280_humidity;BME280_pressure;Samples;Min_cycle;Max_cycle;Signal;HPM_P1;HPM_P2
2023/03/14 00:02:22;;;;;;;41.88;3.67;;;;;;;10.04;100.00;98731.63;5069350;28;20072;-53
2023/03/14 00:04:47;;;;;;;50.45;4.95;;;;;;;10.03;100.00;98732.66;5069292;28;20059;-53
2023/03/14 00:07:13;;;;;;;39.17;3.92;;;;;;;10.01;100.00;98732.09;5069967;28;20029;-51
2023/03/14 00:09:39;;;;;;;46.67;4.60;;;;;;;10.00;100.00;98746.56;5073045;28;20033;-51
2023/03/14 00:12:04;;;;;;;42.58;2.92;;;;;;;9.95;100.00;98739.19;5071846;28;20153;-50
2023/03/14 00:14:31;;;;;;;47.40;4.20;;;;;;;9.94;100.00;98731.38;5073330;28;20021;-50
2023/03/14 00:16:56;;;;;;;44.72;3.88;;;;;;;9.92;100.00;98717.34;5072869;28;20463;-51
2023/03/14 00:19:21;;;;;;;45.47;3.92;;;;;;;9.90;100.00;98736.38;5073144;28;20260;-49
2023/03/14 00:21:47;;;;;;;39.67;4.00;;;;;;;9.78;100.00;98749.78;5072762;28;20089;-51
2023/03/14 00:24:12;;;;;;;41.60;3.72;;;;;;;9.76;100.00;98743.78;5073272;28;20484;-51
2023/03/14 00:26:38;;;;;;;49.35;4.38;;;;;;;9.70;100.00;98757.34;5072736;28;20035;-50
2023/03/14 00:29:03;;;;;;;47.95;3.63;;;;;;;9.62;100.00;98745.03;5072973;28;20386;-50
2023/03/14 00:31:28;;;;;;;44.08;4.10;;;;;;;9.57;100.00;98758.31;5072709;28;20411;-50
2023/03/14 00:33:54;;;;;;;51.28;4.82;;;;;;;9.54;100.00;98761.47;5072540;28;20387;-51
2023/03/14 00:36:20;;;;;;;58.17;4.60;;;;;;;9.50;100.00;98752.22;5072346;28;20035;-51
2023/03/14 00:38:48;;;;;;;67.72;5.45;;;;;;;9.44;100.00;98753.94;5073312;28;20020;-52
2023/03/14 00:41:15;;;;;;;48.78;4.93;;;;;;;9.44;100.00;98753.94;5072832;28;20078;-49
2023/03/14 00:43:41;;;;;;;80.88;4.82;;;;;;;9.41;100.00;98757.91;5072183;28;20039;-50
2023/03/14 00:46:07;;;;;;;68.22;5.50;;;;;;;9.37;100.00;98804.19;5072185;28;20028;-49
2023/03/14 00:48:32;;;;;;;69.35;6.18;;;;;;;9.30;100.00;98757.84;5072555;28;20071;-50
2023/03/14 00:50:58;;;;;;;65.90;6.20;;;;;;;9.29;100.00;98756.19;5072427;28;20112;-50
2023/03/14 00:53:23;;;;;;;63.60;5.20;;;;;;;9.21;100.00;98763.47;5072012;28;20032;-51
2023/03/14 00:55:49;;;;;;;59.95;4.30;;;;;;;9.22;100.00;98756.28;5083351;28;20104;-52
2023/03/14 00:58:16;;;;;;;74.70;5.85;;;;;;;9.16;100.00;98770.56;5072428;28;20528;-49
2023/03/14 01:00:42;;;;;;;76.15;5.32;;;;;;;9.17;100.00;98769.53;5072020;28;20390;-51
2023/03/14 01:03:08;;;;;;;60.95;5.07;;;;;;;9.14;100.00;98781.56;5071971;28;20043;-51
2023/03/14 01:05:33;;;;;;;48.28;4.90;;;;;;;9.13;100.00;98779.06;5071669;28;20451;-51
2023/03/14 01:07:59;;;;;;;58.13;5.53;;;;;;;9.15;100.00;98777.81;5071504;28;20031;-50
2023/03/14 01:10:24;;;;;;;49.47;4.35;;;;;;;9.19;100.00;98783.56;5072172;28;20108;-51
2023/03/14 01:12:50;;;;;;;48.80;5.13;;;;;;;9.19;100.00;98784.38;5072305;28;20035;-50
2023/03/14 01:15:15;;;;;;;67.38;4.57;;;;;;;9.20;100.00;98774.47;5071671;28;20538;-50
2023/03/14 01:17:41;;;;;;;76.07;5.28;;;;;;;9.24;100.00;98756.84;5071857;28;20040;-51
2023/03/14 01:20:09;;;;;;;52.78;4.63;;;;;;;9.25;100.00;98747.78;5071467;28;20052;-51
2023/03/14 01:22:39;;;;;;;;;;;;;;;9.27;100.00;98751.06;5072484;28;20487;-51
2023/03/14 01:25:06;;;;;;;49.42;5.03;;;;;;;9.32;100.00;98735.09;5071703;28;19970;-50
2023/03/14 01:27:32;;;;;;;60.50;4.03;;;;;;;9.36;100.00;98709.44;5071949;28;20021;-52
2023/03/14 01:29:58;;;;;;;60.90;4.85;;;;;;;9.41;100.00;98744.47;5071968;28;20036;-50
2023/03/14 01:32:24;;;;;;;54.50;4.03;;;;;;;9.45;100.00;98739.47;5070175;28;20032;-53
2023/03/14 01:34:49;;;;;;;52.75;4.07;;;;;;;9.49;100.00;98737.16;5071642;28;20476;-50
2023/03/14 01:37:14;;;;;;;37.33;3.80;;;;;;;9.53;100.00;98749.91;5071591;28;20039;-51
2023/03/14 01:39:40;;;;;;;48.25;4.63;;;;;;;9.61;100.00;98751.44;5071956;28;20059;-50
2023/03/14 01:42:05;;;;;;;39.33;3.08;;;;;;;9.62;100.00;98739.66;5071231;28;20024;-51
2023/03/14 01:44:56;;;;;;;35.55;3.20;;;;;;;9.63;100.00;98735.94;5071207;28;20032;-51
2023/03/14 01:47:22;;;;;;;37.72;4.22;;;;;;;9.65;100.00;98740.03;5070841;28;20451;-53
2023/03/14 01:49:53;;;;;;;41.63;4.05;;;;;;;9.66;100.00;98732.78;5069595;28;20081;-51
2023/03/14 01:52:25;;;;;;;30.73;2.60;;;;;;;9.66;100.00;98735.47;5071016;28;20447;-51
2023/03/14 01:54:56;;;;;;;42.75;3.28;;;;;;;9.61;100.00;98738.84;5054194;28;20039;-50
2023/03/14 01:57:39;;;;;;;45.92;4.03;;;;;;;9.60;100.00;98736.38;5054940;28;20387;-51
2023/03/14 02:00:17;;;;;;;23.90;3.47;;;;;;;9.61;100.00;98727.28;5068621;28;20024;-50
2023/03/14 02:02:45;;;;;;;44.28;4.07;;;;;;;9.57;100.00;98726.09;5066622;28;20033;-50
2023/03/14 02:05:12;;;;;;;47.00;3.80;;;;;;;9.53;100.00;98724.91;5067507;28;20052;-51
2023/03/14 02:07:50;;;;;;;40.40;3.35;;;;;;;9.45;100.00;98724.19;5050032;28;20480;-51
2023/03/14 02:10:18;;;;;;;47.38;4.05;;;;;;;9.42;100.00;98724.63;5061422;28;20505;-50
2023/03/14 02:12:45;;;;;;;36.40;3.67;;;;;;;9.41;100.00;98723.00;5070024;28;20048;-52
2023/03/14 02:15:10;;;;;;;44.70;3.05;;;;;;;9.42;100.00;98718.44;5069176;28;20447;-51
2023/03/14 02:17:36;;;;;;;50.83;4.15;;;;;;;9.44;100.00;98716.34;5072662;28;20025;-50
2023/03/14 02:20:24;;;;;;;40.00;4.05;;;;;;;9.42;100.00;98708.50;5068483;28;20569;-51
2023/03/14 02:22:50;;;;;;;34.05;4.20;;;;;;;9.42;100.00;98719.25;5067342;28;20067;-51
2023/03/14 02:25:34;;;;;;;49.58;3.95;;;;;;;9.43;100.00;98701.31;5070615;28;20024;-51
2023/03/14 02:28:00;;;;;;;30.65;3.20;;;;;;;9.43;100.00;98710.16;5061872;28;20020;-50
2023/03/14 02:30:28;;;;;;;31.52;3.20;;;;;;;9.42;100.00;98700.44;5070878;28;20092;-49
2023/03/14 02:32:54;;;;;;;;;;;;;;;9.42;100.00;98710.38;5070295;28;20540;-51
2023/03/14 02:35:26;;;;;;;42.90;3.47;;;;;;;9.40;100.00;98710.63;5069284;28;20363;-51
2023/03/14 02:38:06;;;;;;;36.53;2.83;;;;;;;9.38;100.00;98712.72;5068951;28;20457;-51
2023/03/14 02:40:32;;;;;;;45.28;4.90;;;;;;;9.38;100.00;98712.72;5070357;28;20052;-50
2023/03/14 02:42:57;;;;;;;29.67;3.78;;;;;;;9.34;100.00;98714.19;5070422;28;20129;-50
2023/03/14 02:45:22;;;;;;;43.30;3.53;;;;;;;9.33;100.00;98709.06;5070288;28;20028;-51
2023/03/14 02:47:57;;;;;;;18.38;2.75;;;;;;;9.33;100.00;98699.16;5069671;28;20495;-49
2023/03/14 02:50:25;;;;;;;31.15;2.92;;;;;;;9.28;100.00;98701.69;5061620;28;20368;-50
2023/03/14 02:52:50;;;;;;;27.85;3.30;;;;;;;9.29;100.00;98700.63;5069032;28;20162;-54
2023/03/14 02:55:23;;;;;;;25.08;2.97;;;;;;;9.29;100.00;98697.94;5070470;28;20475;-51
2023/03/14 02:57:48;;;;;;;26.80;3.22;;;;;;;9.28;100.00;98696.31;5062126;28;20040;-50
2023/03/14 03:00:14;;;;;;;26.38;3.58;;;;;;;9.26;100.00;98690.34;5069646;28;20125;-51
2023/03/14 03:02:40;;;;;;;25.95;2.97;;;;;;;9.29;100.00;98692.56;5070509;28;20020;-51
2023/03/14 03:05:05;;;;;;;25.60;3.70;;;;;;;9.31;100.00;98695.88;5070102;28;20036;-51
2023/03/14 03:07:30;;;;;;;33.28;4.05;;;;;;;9.31;100.00;98698.53;5069555;28;20474;-51
2023/03/14 03:09:56;;;;;;;35.90;3.55;;;;;;;9.32;100.00;98685.94;5069454;28;20395;-51
2023/03/14 03:12:21;;;;;;;31.95;3.15;;;;;;;9.34;100.00;98684.66;5069542;28;20032;-50
2023/03/14 03:14:46;;;;;;;33.85;5.10;;;;;;;9.35;100.00;98690.88;5069849;28;20032;-52
2023/03/14 03:17:12;;;;;;;37.72;3.78;;;;;;;9.35;100.00;98688.19;5070179;28;20463;-52
2023/03/14 03:19:37;;;;;;;33.92;3.70;;;;;;;9.37;100.00;98681.56;5069522;28;20334;-49
2023/03/14 03:22:03;;;;;;;33.20;4.18;;;;;;;9.37;100.00;98683.38;5069580;28;20025;-52
2023/03/14 03:24:28;;;;;;;25.23;3.88;;;;;;;9.38;100.00;98718.06;5069495;28;20025;-52
2023/03/14 03:26:53;;;;;;;38.38;3.70;;;;;;;9.41;100.00;98679.22;5069392;28;20039;-50
2023/03/14 03:29:19;;;;;;;32.50;4.50;;;;;;;9.40;100.00;98683.78;5069579;28;20040;-52
2023/03/14 03:31:47;;;;;;;31.67;3.75;;;;;;;9.38;100.00;98704.66;5069708;28;20035;-51
2023/03/14 03:34:13;;;;;;;29.98;3.13;;;;;;;9.41;100.00;98685.41;5069618;28;20029;-51
2023/03/14 03:36:38;;;;;;;33.38;4.55;;;;;;;9.44;100.00;98673.41;5069701;28;20024;-52
2023/03/14 03:39:04;;;;;;;30.23;4.90;;;;;;;9.42;100.00;98676.28;5069724;28;20055;-52
2023/03/14 03:41:30;;;;;;;26.25;4.68;;;;;;;9.42;100.00;98676.28;5069691;28;20020;-52
2023/03/14 03:43:56;;;;;;;30.70;4.53;;;;;;;9.40;100.00;98673.03;5072815;28;20040;-51
2023/03/14 03:46:21;;;;;;;36.45;4.15;;;;;;;9.43;100.00;98688.69;5073273;28;20033;-53
2023/03/14 03:48:46;;;;;;;30.73;4.38;;;;;;;9.38;100.00;98685.88;5073346;28;20044;-50
2023/03/14 03:51:13;;;;;;;33.05;4.60;;;;;;;9.34;100.00;98695.41;5073829;28;20716;-51
2023/03/14 03:53:39;;;;;;;27.60;4.55;;;;;;;9.29;100.00;98692.56;5073031;28;20039;-52
2023/03/14 03:56:05;;;;;;;47.08;5.35;;;;;;;9.23;100.00;98699.66;5073508;28;20024;-54
2023/03/14 03:58:30;;;;;;;34.45;5.40;;;;;;;9.08;100.00;98706.47;5073144;28;20029;-51
2023/03/14 04:00:56;;;;;;;35.13;5.18;;;;;;;9.01;100.00;98711.94;5073176;28;20020;-51
2023/03/14 04:03:21;;;;;;;42.17;5.00;;;;;;;8.89;100.00;98714.53;5072951;28;20534;-50
2023/03/14 04:05:46;;;;;;;38.40;4.88;;;;;;;8.82;100.00;98729.88;5070485;28;20140;-49
2023/03/14 04:08:12;;;;;;;35.63;4.63;;;;;;;8.73;100.00;98725.84;5072623;28;20031;-56
2023/03/14 04:10:37;;;;;;;47.28;4.95;;;;;;;8.64;100.00;98737.91;5073155;28;20036;-58
2023/03/14 04:13:02;;;;;;;48.20;5.40;;;;;;;8.57;100.00;98738.78;5073400;28;20119;-57
2023/03/14 04:15:28;;;;;;;37.80;4.85;;;;;;;8.52;100.00;98741.28;5073273;28;20020;-56
2023/03/14 04:17:58;;;;;;;31.45;4.65;;;;;;;8.49;100.00;98736.38;5073067;28;20106;-57
2023/03/14 04:20:23;;;;;;;43.25;6.05;;;;;;;8.46;100.00;98742.19;5073404;28;20048;-56
2023/03/14 04:22:48;;;;;;;29.83;4.57;;;;;;;8.43;100.00;98753.34;5073529;28;20086;-57
2023/03/14 04:25:16;;;;;;;46.72;5.63;;;;;;;8.41;100.00;98746.56;5073082;28;20111;-57
2023/03/14 04:27:41;;;;;;;45.10;5.15;;;;;;;8.40;100.00;98751.09;5072738;28;20055;-57
2023/03/14 04:30:07;;;;;;;29.13;5.05;;;;;;;8.39;100.00;98749.44;5072953;28;20021;-58
2023/03/14 04:32:33;;;;;;;42.05;5.68;;;;;;;8.37;100.00;98748.81;5073038;28;20108;-53
2023/03/14 04:34:58;;;;;;;37.47;5.18;;;;;;;8.36;100.00;98741.81;5073355;28;20514;-55
2023/03/14 04:37:23;;;;;;;22.35;4.57;;;;;;;8.34;100.00;98731.31;5072818;28;20379;-55
2023/03/14 04:39:49;;;;;;;41.33;5.93;;;;;;;8.33;100.00;98739.59;5073361;28;20390;-53
2023/03/14 04:42:14;;;;;;;37.42;5.05;;;;;;;8.33;100.00;98744.94;5071744;28;20060;-52
2023/03/14 04:44:39;;;;;;;34.22;5.57;;;;;;;8.31;100.00;98752.38;5073024;28;20020;-55
2023/03/14 04:47:05;;;;;;;35.47;6.25;;;;;;;8.29;100.00;98743.72;5073003;28;20471;-55
2023/03/14 04:49:30;;;;;;;30.75;5.60;;;;;;;8.26;100.00;98744.16;5053497;28;20545;-57
2023/03/14 04:51:55;;;;;;;42.65;5.95;;;;;;;8.24;100.00;98743.56;5072733;28;20560;-57
2023/03/14 04:54:21;;;;;;;36.40;6.13;;;;;;;8.21;100.00;98739.47;5070361;28;20024;-54
2023/03/14 04:56:46;;;;;;;28.58;5.93;;;;;;;8.21;100.00;98746.69;5069872;28;20213;-54
2023/03/14 04:59:11;;;;;;;28.98;5.25;;;;;;;8.21;100.00;98754.72;5070715;28;20426;-55
2023/03/14 05:01:37;;;;;;;30.20;6.55;;;;;;;8.20;100.00;98750.41;5070104;28;20625;-55
2023/03/14 05:04:02;;;;;;;30.60;6.32;;;;;;;8.20;100.00;98753.91;5070859;28;20064;-59
2023/03/14 05:06:27;;;;;;;30.70;6.70;;;;;;;8.22;100.00;98756.38;5070137;28;20063;-60
2023/03/14 05:08:53;;;;;;;31.42;5.90;;;;;;;8.22;100.00;98769.78;5070756;28;20016;-58
2023/03/14 05:11:18;;;;;;;24.40;6.03;;;;;;;8.21;100.00;98776.97;5068239;28;20067;-58
2023/03/14 05:13:44;;;;;;;33.10;6.03;;;;;;;8.20;100.00;98785.25;5070780;28;20043;-58
2023/03/14 05:16:10;;;;;;;40.30;6.45;;;;;;;8.12;100.00;98789.81;5070286;28;20024;-59
2023/03/14 05:18:36;;;;;;;19.42;4.28;;;;;;;7.97;100.00;98813.41;5070684;28;20020;-59
2023/03/14 05:21:01;;;;;;;77.13;5.70;;;;;;;7.85;100.00;98825.84;5069663;28;20056;-58
2023/03/14 05:23:27;;;;;;;37.30;3.22;;;;;;;7.65;100.00;98826.75;5069812;28;20248;-57
2023/03/14 05:25:52;;;;;;;32.45;3.60;;;;;;;7.51;100.00;98835.88;5070711;28;20020;-60
2023/03/14 05:28:17;;;;;;;32.72;3.70;;;;;;;7.51;100.00;98841.22;5070061;28;20107;-58
2023/03/14 05:30:43;;;;;;;33.80;2.95;;;;;;;7.41;100.00;98838.16;5072994;28;20074;-55
2023/03/14 05:33:08;;;;;;;31.02;3.10;;;;;;;7.31;100.00;98841.28;5069639;28;20497;-58
2023/03/14 05:35:33;;;;;;;32.15;2.30;;;;;;;7.27;100.00;98853.44;5069816;28;20346;-58
2023/03/14 05:37:59;;;;;;;38.05;2.88;;;;;;;7.21;100.00;98848.91;5069635;28;20186;-60
2023/03/14 05:40:25;;;;;;;32.85;2.65;;;;;;;7.14;100.00;98850.78;5069654;28;20029;-56
2023/03/14 05:42:50;;;;;;;23.90;2.65;;;;;;;7.12;100.00;98863.53;5069941;28;20059;-55
2023/03/14 05:45:16;;;;;;;39.08;2.38;;;;;;;7.12;100.00;98864.38;5069471;28;20129;-53
2023/03/14 05:47:41;;;;;;;38.63;3.47;;;;;;;7.10;100.00;98865.59;5068323;28;20082;-55
2023/03/14 05:50:07;;;;;;;33.15;2.70;;;;;;;7.06;100.00;98875.91;5069434;28;20368;-56
2023/03/14 05:52:32;;;;;;;34.63;3.53;;;;;;;7.11;100.00;98884.13;5069290;28;20250;-55
2023/03/14 05:54:58;;;;;;;32.97;2.85;;;;;;;7.08;100.00;98884.53;5069529;28;20036;-56
2023/03/14 05:57:23;;;;;;;41.42;2.90;;;;;;;7.09;100.00;98891.53;5069995;28;20040;-59
2023/03/14 05:59:48;;;;;;;28.98;2.67;;;;;;;7.08;100.00;98895.22;5061514;28;20029;-58
2023/03/14 06:02:14;;;;;;;35.30;4.60;;;;;;;7.11;100.00;98905.53;5066845;28;20024;-54
2023/03/14 06:04:39;;;;;;;39.47;2.72;;;;;;;7.02;100.00;98899.53;5068441;28;20063;-55
2023/03/14 06:07:04;;;;;;;32.13;2.97;;;;;;;7.01;100.00;98918.50;5068257;28;20533;-56
2023/03/14 06:09:30;;;;;;;21.48;1.83;;;;;;;6.96;100.00;98907.59;5071076;28;20020;-58
2023/03/14 06:11:55;;;;;;;22.15;2.40;;;;;;;6.94;100.00;98920.34;5054920;28;20060;-60
2023/03/14 06:14:20;;;;;;;8.35;1.77;;;;;;;6.92;100.00;98925.06;5070351;28;20082;-57
2023/03/14 06:16:48;;;;;;;18.25;2.42;;;;;;;6.83;100.00;98924.44;5073638;28;20032;-56
2023/03/14 06:19:14;;;;;;;17.38;1.88;;;;;;;6.77;100.00;98931.44;5070380;28;20043;-53
2023/03/14 06:21:39;;;;;;;12.23;1.60;;;;;;;6.74;100.00;98942.53;5068517;28;20025;-51
2023/03/14 06:24:05;;;;;;;20.77;1.92;;;;;;;6.79;100.00;98942.75;5070663;28;20121;-55
2023/03/14 06:26:30;;;;;;;24.23;2.28;;;;;;;6.72;100.00;98954.47;5070288;28;20040;-54
2023/03/14 06:28:55;;;;;;;16.67;1.58;;;;;;;6.73;100.00;98956.91;5069990;28;20114;-54
2023/03/14 06:31:21;;;;;;;24.25;2.85;;;;;;;6.70;100.00;98959.19;5069946;28;20033;-52
2023/03/14 06:33:46;;;;;;;19.45;2.17;;;;;;;6.72;100.00;98971.31;5073872;28;20119;-53
2023/03/14 06:36:11;;;;;;;19.73;1.60;;;;;;;6.70;100.00;98976.03;5053022;28;20032;-52
2023/03/14 06:38:37;;;;;;;24.80;3.70;;;;;;;6.73;100.00;98977.50;5070517;28;20055;-52
2023/03/14 06:41:04;;;;;;;22.90;2.45;;;;;;;6.70;100.00;98988.59;5065324;28;20029;-55
2023/03/14 06:43:29;;;;;;;32.40;3.17;;;;;;;6.71;100.00;98995.56;5050746;28;20036;-50
2023/03/14 06:45:55;;;;;;;44.65;5.00;;;;;;;6.73;100.00;99009.56;5061081;28;20040;-51
2023/03/14 06:48:20;;;;;;;21.90;3.15;;;;;;;6.78;100.00;99013.28;5069905;28;20101;-52
2023/03/14 06:50:47;;;;;;;16.20;2.35;;;;;;;6.80;100.00;99026.47;5069386;28;20031;-51
2023/03/14 06:53:13;;;;;;;27.07;3.20;;;;;;;6.81;100.00;99038.78;5070215;28;20035;-51
2023/03/14 06:55:38;;;;;;;38.25;4.53;;;;;;;6.76;100.00;99035.91;5068457;28;20039;-50
2023/03/14 06:58:03;;;;;;;29.83;3.08;;;;;;;6.73;100.00;99047.81;5070532;28;20060;-51
2023/03/14 07:00:29;;;;;;;26.90;3.80;;;;;;;6.72;100.00;99054.22;5070116;28;20394;-50
2023/03/14 07:02:54;;;;;;;25.90;3.00;;;;;;;6.76;100.00;99065.31;5067306;28;20030;-52
2023/03/14 07:05:20;;;;;;;21.75;2.33;;;;;;;6.77;100.00;99070.47;5074262;28;20032;-50
2023/03/14 07:07:45;;;;;;;27.15;3.28;;;;;;;6.82;100.00;99070.69;5070155;28;20492;-52
2023/03/14 07:10:10;;;;;;;37.85;2.75;;;;;;;6.82;100.00;99069.88;5069588;28;20039;-51
2023/03/14 07:12:36;;;;;;;24.10;3.90;;;;;;;6.80;100.00;99079.94;5068496;28;20491;-50
2023/03/14 07:15:01;;;;;;;27.38;2.65;;;;;;;6.85;100.00;99087.38;5070321;28;20021;-50
2023/03/14 07:17:27;;;;;;;30.75;2.80;;;;;;;6.82;100.00;99099.28;5068201;28;20416;-52
2023/03/14 07:19:53;;;;;;;32.50;3.20;;;;;;;6.84;100.00;99102.56;5068451;28;20132;-52
2023/03/14 07:22:18;;;;;;;13.80;1.73;;;;;;;6.75;100.00;99120.63;5067545;28;20044;-52
2023/03/14 07:24:43;;;;;;;22.52;1.95;;;;;;;6.71;100.00;99119.38;5071283;28;20032;-55
2023/03/14 07:27:09;;;;;;;29.45;6.90;;;;;;;6.67;100.00;99128.84;5071403;28;20066;-55
2023/03/14 07:29:34;;;;;;;17.60;1.98;;;;;;;6.64;100.00;99150.63;5070526;28;20032;-52
2023/03/14 07:31:59;;;;;;;22.15;2.10;;;;;;;6.56;100.00;99154.28;5069778;28;20100;-51
2023/03/14 07:34:25;;;;;;;27.02;2.42;;;;;;;6.60;100.00;99184.09;5070081;28;20055;-53
2023/03/14 07:36:50;;;;;;;18.98;1.83;;;;;;;6.44;100.00;99182.56;5069993;28;20021;-50
2023/03/14 07:39:15;;;;;;;24.48;2.00;;;;;;;6.40;100.00;99199.19;5069948;28;20028;-51
2023/03/14 07:41:41;;;;;;;33.42;2.00;;;;;;;6.34;100.00;99209.63;5068349;28;20024;-51
2023/03/14 07:44:06;;;;;;;23.83;3.47;;;;;;;6.28;100.00;99226.44;5069674;28;20039;-51
2023/03/14 07:46:31;;;;;;;24.70;2.42;;;;;;;6.31;100.00;99239.41;5070201;28;20108;-51
2023/03/14 07:48:57;;;;;;;20.38;2.38;;;;;;;6.24;100.00;99251.91;5069900;28;20024;-50
2023/03/14 07:51:22;;;;;;;30.77;2.05;;;;;;;6.13;100.00;99252.41;5070076;28;20029;-50
2023/03/14 07:53:48;;;;;;;24.52;1.85;;;;;;;6.10;100.00;99266.16;5069670;28;20024;-51
2023/03/14 07:56:13;;;;;;;19.30;1.85;;;;;;;6.04;100.00;99288.28;5070414;28;20107;-52
2023/03/14 07:58:38;;;;;;;22.40;2.42;;;;;;;5.94;100.00;99294.75;5070070;28;20023;-52
2023/03/14 08:01:04;;;;;;;24.73;1.83;;;;;;;5.83;100.00;99286.41;5069611;28;20111;-50
2023/03/14 08:03:29;;;;;;;11.60;1.33;;;;;;;5.88;100.00;99308.84;5070372;28;20158;-49
2023/03/14 08:05:54;;;;;;;18.10;1.30;;;;;;;5.92;100.00;99323.47;5069911;28;20024;-50
2023/03/14 08:08:20;;;;;;;16.25;1.70;;;;;;;5.90;100.00;99322.03;5069716;28;20032;-50
2023/03/14 08:10:46;;;;;;;16.23;1.85;;;;;;;5.94;100.00;99342.00;5069589;28;20691;-51
2023/03/14 08:13:11;;;;;;;25.80;2.30;;;;;;;5.97;100.00;99357.63;5069635;28;20032;-51
2023/03/14 08:15:37;;;;;;;19.20;1.95;;;;;;;5.96;100.00;99364.00;5069897;28;20386;-52
2023/03/14 08:18:03;;;;;;;16.77;2.17;;;;;;;5.92;100.00;99376.88;5069837;28;20033;-50
2023/03/14 08:20:29;;;;;;;28.15;2.17;;;;;;;5.93;100.00;99375.91;5069516;28;20049;-53
2023/03/14 08:22:56;;;;;;;20.65;2.10;;;;;;;5.89;100.00;99387.91;5069864;28;20146;-51
2023/03/14 08:25:22;;;;;;;13.03;1.50;;;;;;;5.81;100.00;99400.56;5070160;28;20059;-50
2023/03/14 08:27:47;;;;;;;21.55;2.05;;;;;;;5.69;100.00;99413.56;5069741;28;20064;-50
2023/03/14 08:30:14;;;;;;;13.48;1.20;;;;;;;5.61;100.00;99410.97;5072993;28;20074;-51
2023/03/14 08:32:39;;;;;;;13.35;1.92;;;;;;;5.60;100.00;99422.66;5073468;28;20044;-53
2023/03/14 08:35:05;;;;;;;22.63;1.83;;;;;;;5.58;100.00;99430.03;5073354;28;20471;-52
2023/03/14 08:37:31;;;;;;;18.75;1.77;;;;;;;5.74;100.00;99437.88;5073115;28;20040;-52
2023/03/14 08:39:57;;;;;;;17.60;1.90;;;;;;;5.87;100.00;99446.03;5072998;28;20028;-53
2023/03/14 08:42:22;;;;;;;23.58;2.33;;;;;;;6.08;100.00;99450.66;5073318;28;20027;-51
2023/03/14 08:44:48;;;;;;;38.28;2.45;;;;;;;6.17;100.00;99454.03;5073183;28;20075;-51
2023/03/14 08:47:13;;;;;;;30.10;3.28;;;;;;;6.33;100.00;99464.50;5073147;28;20103;-54
2023/03/14 08:49:39;;;;;;;29.15;2.70;;;;;;;6.44;100.00;99465.03;5073072;28;20024;-51
2023/03/14 08:52:04;;;;;;;20.83;2.45;;;;;;;6.58;100.00;99477.50;5073203;28;20109;-51
2023/03/14 08:54:30;;;;;;;27.80;2.30;;;;;;;6.71;100.00;99482.16;5073124;28;20025;-53
2023/03/14 08:56:56;;;;;;;34.35;3.85;;;;;;;6.83;100.00;99491.34;5072959;28;20089;-52
2023/03/14 08:59:21;;;;;;;34.97;2.45;;;;;;;6.84;100.00;99492.16;5072862;28;20060;-54
2023/03/14 09:01:47;;;;;;;27.83;2.35;;;;;;;6.89;100.00;99492.41;5072864;28;20055;-51
2023/03/14 09:04:13;;;;;;;27.67;3.47;;;;;;;6.93;100.00;99497.19;5072975;28;20059;-54
2023/03/14 09:06:39;;;;;;;33.25;3.45;;;;;;;6.96;100.00;99514.72;5072580;28;20056;-55
2023/03/14 09:09:04;;;;;;;29.23;2.58;;;;;;;7.04;100.00;99519.94;5073359;28;20040;-51
2023/03/14 09:11:30;;;;;;;37.47;3.53;;;;;;;6.99;100.00;99527.72;5072817;28;20025;-52
2023/03/14 09:13:55;;;;;;;26.58;4.15;;;;;;;6.96;100.00;99538.78;5072548;28;20025;-52
2023/03/14 09:16:21;;;;;;;33.67;3.00;;;;;;;6.89;100.00;99548.59;5072730;28;20070;-53
2023/03/14 09:18:46;;;;;;;43.95;3.35;;;;;;;6.93;100.00;99560.56;5072149;28;20229;-54
2023/03/14 09:21:12;;;;;;;44.65;3.17;;;;;;;6.86;100.00;99571.19;5072157;28;20378;-53
2023/03/14 09:23:38;;;;;;;37.35;4.40;;;;;;;6.69;100.00;99583.13;5072434;28;20108;-53
2023/03/14 09:26:04;;;;;;;35.55;3.22;;;;;;;6.63;100.00;99597.25;5072168;28;20031;-51
2023/03/14 09:28:30;;;;;;;44.70;3.28;;;;;;;6.49;100.00;99622.97;5072419;28;20366;-53
2023/03/14 09:30:55;;;;;;;35.17;3.50;;;;;;;6.18;100.00;99636.50;5072399;28;20093;-51
2023/03/14 09:33:21;;;;;;;19.75;1.98;;;;;;;6.07;100.00;99648.47;5072305;28;20029;-53
2023/03/14 09:35:46;;;;;;;31.60;5.30;;;;;;;6.10;100.00;99656.13;5072060;28;20028;-52
2023/03/14 09:38:11;;;;;;;27.67;4.05;;;;;;;6.33;100.00;99661.41;5072627;28;20407;-52
2023/03/14 09:40:37;;;;;;;17.08;2.88;;;;;;;6.81;100.00;99673.38;5070748;28;20024;-53
2023/03/14 09:43:04;;;;;;;30.85;3.08;;;;;;;7.32;100.00;99677.03;5072219;28;20076;-52
2023/03/14 09:45:33;;;;;;;45.05;3.33;;;;;;;7.89;100.00;99679.66;5071097;28;20479;-53
2023/03/14 09:47:59;;;;;;;32.72;3.15;;;;;;;8.39;100.00;99674.31;5072043;28;20024;-53
2023/03/14 09:50:25;;;;;;;42.20;3.50;;;;;;;8.72;100.00;99676.38;5072124;28;20017;-50
2023/03/14 09:52:59;;;;;;;45.95;3.97;;;;;;;8.76;100.00;99680.28;5072329;28;20040;-54
2023/03/14 09:55:24;;;;;;;49.47;3.58;;;;;;;8.52;100.00;99681.59;5070448;28;20028;-54
2023/03/14 09:57:55;;;;;;;38.72;4.78;;;;;;;8.19;100.00;99684.03;5071792;28;20032;-54
2023/03/14 10:00:24;;;;;;;39.22;3.00;;;;;;;7.99;100.00;99700.78;5070305;28;20097;-51
2023/03/14 10:03:02;;;;;;;46.10;3.40;;;;;;;7.83;100.00;99723.31;5070797;28;20070;-51
2023/03/14 10:05:29;;;;;;;;;;;;;;;7.62;100.00;99726.81;5071748;28;20033;-50
2023/03/14 10:07:54;;;;;;;46.08;4.00;;;;;;;7.47;100.00;99734.88;5071156;28;19998;-51
2023/03/14 10:10:22;;;;;;;57.55;4.05;;;;;;;7.37;100.00;99752.25;5071389;28;20099;-50
2023/03/14 10:12:55;;;;;;;50.70;3.13;;;;;;;7.47;100.00;99744.75;5071363;28;20055;-51
2023/03/14 10:15:34;;;;;;;46.58;3.75;;;;;;;7.49;100.00;99761.47;5070951;28;20104;-52
2023/03/14 10:18:01;;;;;;;43.65;3.95;;;;;;;7.70;100.00;99766.03;5069940;28;20115;-50
2023/03/14 10:20:42;;;;;;;47.80;4.57;;;;;;;7.78;100.00;99783.81;5071188;28;20048;-52
2023/03/14 10:23:11;;;;;;;50.03;4.38;;;;;;;7.77;100.00;99792.91;5071443;28;20542;-53
2023/03/14 10:25:38;;;;;;;43.03;3.22;;;;;;;7.82;100.00;99790.44;5070768;28;20108;-51
2023/03/14 10:28:04;;;;;;;52.10;3.83;;;;;;;7.78;100.00;99807.94;5071684;28;20063;-54
2023/03/14 10:30:38;;;;;;;47.83;3.78;;;;;;;7.80;100.00;99824.66;5071243;28;20383;-50
2023/03/14 10:33:22;;;;;;;47.50;3.75;;;;;;;7.71;100.00;99826.59;5071160;28;20028;-51
2023/03/14 10:35:59;;;;;;;37.05;3.83;;;;;;;7.68;100.00;99833.16;5070866;28;20063;-54
2023/03/14 10:38:32;;;;;;;49.70;4.82;;;;;;;7.62;100.00;99833.91;5070707;28;20406;-54
2023/03/14 10:40:59;;;;;;;64.00;4.47;;;;;;;7.64;100.00;99847.94;5070676;28;20036;-53
2023/03/14 10:43:35;;;;;;;37.75;3.53;;;;;;;7.61;100.00;99861.72;5069414;28;20029;-52
2023/03/14 10:46:31;;;;;;;57.75;4.45;;;;;;;7.60;100.00;99857.38;5070505;28;20031;-51
2023/03/14 10:48:56;;;;;;;58.17;4.55;;;;;;;7.85;100.00;99873.13;5061786;28;20110;-52
2023/03/14 10:51:27;;;;;;;57.58;5.20;;;;;;;7.76;100.00;99880.44;5070301;28;20037;-54
2023/03/14 10:53:56;;;;;;;47.85;4.10;;;;;;;7.89;100.00;99887.78;5070569;28;20032;-53
2023/03/14 10:56:24;;;;;;;46.30;5.13;;;;;;;8.01;100.00;99897.03;5070647;28;20036;-50
2023/03/14 10:58:55;;;;;;;41.72;3.53;;;;;;;8.43;100.00;99910.72;5069363;28;20027;-51
2023/03/14 11:01:59;;;;;;;33.78;2.90;;;;;;;8.87;100.00;99909.66;5069265;28;20023;-53
2023/03/14 11:04:43;;;;;;;39.55;5.28;;;;;;;9.35;100.00;99928.63;5069376;28;20081;-53
2023/03/14 11:07:11;;;;;;;33.72;3.10;;;;;;;9.72;100.00;99937.31;5070412;28;20085;-52
2023/03/14 11:09:42;;;;;;;;;;;;;;;10.29;93.18;99933.41;5071013;28;20089;-54
2023/03/14 11:12:33;;;;;;;39.38;3.85;;;;;;;10.53;85.89;99950.88;5069297;28;19909;-51
2023/03/14 11:15:04;;;;;;;47.53;3.65;;;;;;;10.74;84.84;99958.78;5051400;28;20149;-53
2023/03/14 11:17:37;;;;;;;39.20;3.38;;;;;;;10.91;82.69;99977.25;5069220;28;20032;-51
2023/03/14 11:20:21;;;;;;;30.77;3.40;;;;;;;10.86;80.08;99977.03;5069155;28;20040;-54
2023/03/14 11:23:10;;;;;;;39.78;3.00;;;;;;;10.97;75.09;99984.47;5070151;28;20025;-51
2023/03/14 11:25:59;;;;;;;30.38;2.55;;;;;;;11.43;70.09;99999.84;5070730;28;20171;-53
2023/03/14 11:28:40;;;;;;;33.03;3.80;;;;;;;11.71;68.61;100017.63;5068963;28;20467;-54